| time (UTC) | temp F | wind direction | speed knots | gust knots | rain 1hr in | rain 24hr in | rain mn in | humidity % | barometer mb |
| 20260506001507 | 33 | 265 | 0.0 | 0.0 | 0.00 | 0.00 | 0.00 | 62 | 1013.4 |
| 20260506000005 | 33 | 168 | 0.0 | 0.0 | 0.00 | 0.00 | 0.00 | 64 | 1013.5 |
| 20260505234503 | 34 | 271 | 0.0 | 0.0 | 0.00 | 0.00 | 0.00 | 61 | 1013.4 |
| 20260505233001 | 34 | 183 | 0.0 | 0.0 | 0.00 | 0.00 | 0.00 | 63 | 1013.4 |
| 20260505231600 | 35 | 185 | 0.0 | 0.0 | 0.00 | 0.00 | 0.00 | 60 | 1013.4 |
| 20260505230101 | 35 | 188 | 0.0 | 0.0 | 0.00 | 0.00 | 0.00 | 59 | 1013.4 |
| 20260505224555 | 36 | 186 | 0.0 | 0.0 | 0.00 | 0.00 | 0.00 | 57 | 1013.3 |
| 20260505223051 | 38 | 226 | 0.9 | 5.2 | 0.00 | 0.00 | 0.00 | 53 | 1013.1 |
| 20260505221600 | 39 | 232 | 0.0 | 0.0 | 0.00 | 0.00 | 0.00 | 51 | 1013.1 |
| 20260505220056 | 40 | 251 | 0.0 | 8.7 | 0.00 | 0.00 | 0.00 | 48 | 1013.0 |
| 20260505214551 | 41 | 293 | 0.9 | 9.6 | 0.00 | 0.00 | 0.00 | 46 | 1012.9 |
| 20260505213041 | 41 | 272 | 3.5 | 7.8 | 0.00 | 0.00 | 0.00 | 47 | 1012.8 |
| 20260505211542 | 41 | 246 | 3.5 | 7.8 | 0.00 | 0.00 | 0.00 | 47 | 1012.8 |
| 20260505210047 | 41 | 238 | 5.2 | 7.8 | 0.00 | 0.00 | 0.00 | 48 | 1012.7 |
| 20260505204550 | 42 | 225 | 2.6 | 7.8 | 0.00 | 0.00 | 0.00 | 45 | 1012.6 |
| 20260505203036 | 43 | 327 | 2.6 | 8.7 | 0.00 | 0.00 | 0.00 | 44 | 1012.4 |
| 20260505201538 | 43 | 239 | 0.0 | 8.7 | 0.00 | 0.00 | 0.00 | 45 | 1012.2 |
| 20260505200032 | 43 | 251 | 0.0 | 7.0 | 0.00 | 0.00 | 0.00 | 44 | 1012.0 |
| 20260505194530 | 44 | 226 | 1.7 | 5.2 | 0.00 | 0.00 | 0.00 | 42 | 1011.8 |
| 20260505193035 | 45 | 300 | 0.0 | 4.3 | 0.00 | 0.00 | 0.00 | 39 | 1011.6 |
| 20260505191526 | 46 | 334 | 1.7 | 5.2 | 0.00 | 0.00 | 0.00 | 37 | 1011.3 |
| 20260505190024 | 47 | 321 | 0.0 | 5.2 | 0.00 | 0.00 | 0.00 | 37 | 1011.2 |
| 20260505184522 | 48 | 302 | 0.9 | 7.8 | 0.00 | 0.00 | 0.00 | 36 | 1011.0 |
| 20260505183031 | 48 | 282 | 0.0 | 7.8 | 0.00 | 0.00 | 0.00 | 35 | 1010.9 |
| 20260505181520 | 49 | 319 | 1.7 | 10.4 | 0.00 | 0.00 | 0.00 | 33 | 1010.7 |
| 20260505180021 | 49 | 322 | 0.9 | 4.3 | 0.00 | 0.00 | 0.00 | 33 | 1010.6 |
| 20260505174519 | 49 | 321 | 0.9 | 7.8 | 0.00 | 0.00 | 0.00 | 31 | 1010.7 |
| 20260505173017 | 49 | 319 | 0.0 | 5.2 | 0.00 | 0.00 | 0.00 | 30 | 1010.5 |
| 20260505171517 | 50 | 306 | 0.0 | 7.8 | 0.00 | 0.00 | 0.00 | 28 | 1010.5 |
| 20260505170017 | 50 | 338 | 2.6 | 9.6 | 0.00 | 0.00 | 0.00 | 27 | 1010.4 |
| 20260505164516 | 52 | 300 | 1.7 | 10.4 | 0.00 | 0.00 | 0.00 | 25 | 1010.4 |
| 20260505163015 | 53 | 268 | 3.5 | 7.8 | 0.00 | 0.00 | 0.00 | 23 | 1010.4 |
| 20260505161514 | 53 | 261 | 2.6 | 13.0 | 0.00 | 0.00 | 0.00 | 23 | 1010.4 |
| 20260505153013 | 54 | 246 | 4.3 | 13.0 | 0.00 | 0.00 | 0.00 | 21 | 1010.3 |
| 20260505151512 | 55 | 302 | 3.5 | 12.2 | 0.00 | 0.00 | 0.00 | 22 | 1010.2 |
| 20260505124503 | 55 | 296 | 0.9 | 13.9 | 0.00 | 0.00 | 0.00 | 25 | 1010.1 |
| 20260505123000 | 54 | 287 | 2.6 | 19.1 | 0.00 | 0.00 | 0.00 | 25 | 1010.2 |
| 20260505121559 | 52 | 320 | 0.0 | 11.3 | 0.00 | 0.00 | 0.00 | 23 | 1010.1 |
| 20260505120106 | 53 | 215 | 7.0 | 14.8 | 0.00 | 0.00 | 0.00 | 23 | 1009.9 |
| 20260505114557 | 53 | 234 | 7.0 | 11.3 | 0.00 | 0.00 | 0.00 | 26 | 1010.0 |
| 20260505113112 | 53 | 261 | 0.9 | 8.7 | 0.00 | 0.00 | 0.00 | 24 | 1010.1 |
| 20260505111553 | 53 | 287 | 3.5 | 8.7 | 0.00 | 0.00 | 0.00 | 25 | 1010.2 |
| 20260505101546 | 50 | 209 | 3.5 | 11.3 | 0.00 | 0.00 | 0.00 | 28 | 1010.6 |
| 20260505100044 | 49 | 210 | 0.0 | 10.4 | 0.00 | 0.00 | 0.00 | 30 | 1010.5 |
| 20260505094545 | 49 | 184 | 0.0 | 12.2 | 0.00 | 0.00 | 0.00 | 30 | 1010.5 |
| 20260505093043 | 49 | 298 | 0.9 | 7.8 | 0.00 | 0.00 | 0.00 | 31 | 1010.6 |
| 20260505091538 | 48 | 324 | 0.0 | 5.2 | 0.00 | 0.00 | 0.00 | 33 | 1010.6 |
| 20260505090035 | 48 | 256 | 0.0 | 7.8 | 0.00 | 0.00 | 0.00 | 33 | 1010.6 |
| 20260505084543 | 47 | 300 | 0.0 | 7.0 | 0.00 | 0.00 | 0.00 | 34 | 1010.7 |
| 20260505083031 | 46 | 316 | 0.0 | 9.6 | 0.00 | 0.00 | 0.00 | 36 | 1010.7 |
| 20260505081528 | 47 | 345 | 0.0 | 8.7 | 0.00 | 0.00 | 0.00 | 37 | 1010.6 |
| 20260505080027 | 45 | 339 | 0.0 | 7.0 | 0.00 | 0.00 | 0.00 | 39 | 1010.8 |
| 20260505074520 | 45 | 347 | 0.9 | 5.2 | 0.00 | 0.00 | 0.00 | 40 | 1010.9 |
| 20260505073016 | 44 | 17 | 0.9 | 5.2 | 0.00 | 0.00 | 0.00 | 45 | 1010.8 |
| 20260505071513 | 42 | 25 | 0.0 | 0.9 | 0.00 | 0.00 | 0.00 | 46 | 1010.7 |
| 20260505070012 | 42 | 6 | 0.0 | 0.9 | 0.00 | 0.00 | 0.00 | 47 | 1010.8 |
| 20260505064511 | 41 | 292 | 2.6 | 8.7 | 0.00 | 0.00 | 0.00 | 46 | 1010.8 |
| 20260505063010 | 41 | 265 | 0.0 | 5.2 | 0.00 | 0.00 | 0.00 | 48 | 1010.8 |
| 20260505061515 | 39 | 215 | 0.0 | 5.2 | 0.00 | 0.00 | 0.00 | 54 | 1010.8 |
| 20260505060011 | 38 | 205 | 0.0 | 0.0 | 0.00 | 0.00 | 0.00 | 60 | 1010.9 |
| 20260505054508 | 36 | 211 | 0.0 | 0.0 | 0.00 | 0.00 | 0.00 | 62 | 1010.9 |
| 20260505053007 | 35 | 209 | 0.0 | 0.0 | 0.00 | 0.00 | 0.00 | 66 | 1010.9 |
| 20260505051508 | 34 | 207 | 0.0 | 0.0 | 0.00 | 0.00 | 0.00 | 67 | 1010.8 |
| 20260505041600 | 31 | 278 | 0.0 | 0.0 | 0.00 | 0.00 | 0.00 | 71 | 1010.4 |
| 20260505040058 | 31 | 275 | 0.0 | 0.0 | 0.00 | 0.00 | 0.00 | 71 | 1010.3 |
| 20260505034616 | 30 | 220 | 0.0 | 0.0 | 0.00 | 0.00 | 0.00 | 72 | 1010.2 |
| 20260505033056 | 30 | 220 | 0.0 | 0.0 | 0.00 | 0.00 | 0.00 | 71 | 1010.1 |
| 20260505031555 | 30 | 220 | 0.0 | 0.0 | 0.00 | 0.00 | 0.00 | 71 | 1010.1 |
| 20260505030051 | 31 | 220 | 0.0 | 0.0 | 0.00 | 0.00 | 0.00 | 69 | 1010.0 |
| 20260505024547 | 32 | 220 | 0.0 | 0.0 | 0.00 | 0.00 | 0.00 | 67 | 1009.9 |
| 20260505023048 | 32 | 220 | 0.0 | 0.0 | 0.00 | 0.00 | 0.00 | 66 | 1009.9 |
| 20260505021543 | 32 | 225 | 0.0 | 0.0 | 0.00 | 0.00 | 0.00 | 67 | 1009.9 |
| 20260505020040 | 33 | 225 | 0.0 | 0.0 | 0.00 | 0.00 | 0.00 | 64 | 1009.6 |
| 20260505014537 | 34 | 225 | 0.0 | 0.0 | 0.00 | 0.00 | 0.00 | 59 | 1009.6 |
| 20260505013033 | 36 | 202 | 0.0 | 0.0 | 0.00 | 0.00 | 0.00 | 54 | 1009.4 |
| 20260505011552 | 38 | 215 | 2.6 | 7.0 | 0.00 | 0.00 | 0.00 | 50 | 1009.2 |
| 20260505010029 | 38 | 289 | 1.7 | 8.7 | 0.00 | 0.00 | 0.00 | 49 | 1009.1 |
| 20260505004528 | 38 | 337 | 0.0 | 3.5 | 0.00 | 0.00 | 0.00 | 52 | 1009.1 |
| 20260505003026 | 37 | 296 | 0.0 | 0.0 | 0.00 | 0.00 | 0.00 | 56 | 1009.0 |